sensor_id;sensor_type;location;lat;lon;timestamp;temperature;humidity
21568;DHT22;10944;42.590;12.630;2022-08-04T00:00:07;25.30;92.70
21568;DHT22;10944;42.590;12.630;2022-08-04T00:02:56;25.30;92.60
21568;DHT22;10944;42.590;12.630;2022-08-04T00:10:49;25.20;92.70
21568;DHT22;10944;42.590;12.630;2022-08-04T00:13:22;25.00;92.70
21568;DHT22;10944;42.590;12.630;2022-08-04T00:15:51;24.90;93.00
21568;DHT22;10944;42.590;12.630;2022-08-04T00:18:22;24.90;93.10
21568;DHT22;10944;42.590;12.630;2022-08-04T00:20:54;24.80;93.20
21568;DHT22;10944;42.590;12.630;2022-08-04T00:23:22;24.70;93.40
21568;DHT22;10944;42.590;12.630;2022-08-04T00:25:52;24.70;93.50
21568;DHT22;10944;42.590;12.630;2022-08-04T00:28:19;24.60;93.50
21568;DHT22;10944;42.590;12.630;2022-08-04T00:30:45;24.60;93.60
21568;DHT22;10944;42.590;12.630;2022-08-04T00:33:17;24.60;93.70
21568;DHT22;10944;42.590;12.630;2022-08-04T00:35:43;24.60;93.70
21568;DHT22;10944;42.590;12.630;2022-08-04T00:38:10;24.50;93.70
21568;DHT22;10944;42.590;12.630;2022-08-04T00:49:23;24.20;94.20
21568;DHT22;10944;42.590;12.630;2022-08-04T01:00:21;24.00;94.60
21568;DHT22;10944;42.590;12.630;2022-08-04T01:03:13;24.00;94.60
21568;DHT22;10944;42.590;12.630;2022-08-04T01:06:26;24.10;94.40
21568;DHT22;10944;42.590;12.630;2022-08-04T01:15:04;24.20;94.30
21568;DHT22;10944;42.590;12.630;2022-08-04T01:17:48;24.20;94.00
21568;DHT22;10944;42.590;12.630;2022-08-04T01:20:24;24.30;94.30
21568;DHT22;10944;42.590;12.630;2022-08-04T01:26:12;24.10;94.40
21568;DHT22;10944;42.590;12.630;2022-08-04T01:33:59;24.20;94.50
21568;DHT22;10944;42.590;12.630;2022-08-04T01:36:33;24.10;94.40
21568;DHT22;10944;42.590;12.630;2022-08-04T01:39:00;24.20;94.50
21568;DHT22;10944;42.590;12.630;2022-08-04T01:41:52;24.20;94.40
21568;DHT22;10944;42.590;12.630;2022-08-04T01:44:18;24.10;94.60
21568;DHT22;10944;42.590;12.630;2022-08-04T01:46:49;24.00;94.60
21568;DHT22;10944;42.590;12.630;2022-08-04T01:49:16;23.90;94.80
21568;DHT22;10944;42.590;12.630;2022-08-04T01:51:42;23.90;94.80
21568;DHT22;10944;42.590;12.630;2022-08-04T01:54:09;24.00;94.80
21568;DHT22;10944;42.590;12.630;2022-08-04T01:56:35;23.90;94.80
21568;DHT22;10944;42.590;12.630;2022-08-04T01:59:02;24.00;94.60
21568;DHT22;10944;42.590;12.630;2022-08-04T02:01:28;24.00;94.80
21568;DHT22;10944;42.590;12.630;2022-08-04T02:03:54;24.00;94.70
21568;DHT22;10944;42.590;12.630;2022-08-04T02:08:59;23.80;95.10
21568;DHT22;10944;42.590;12.630;2022-08-04T02:11:28;23.70;95.10
21568;DHT22;10944;42.590;12.630;2022-08-04T02:17:11;23.50;95.30
21568;DHT22;10944;42.590;12.630;2022-08-04T02:22:26;23.40;95.70
21568;DHT22;10944;42.590;12.630;2022-08-04T02:25:12;23.40;95.90
21568;DHT22;10944;42.590;12.630;2022-08-04T02:28:01;23.40;95.80
21568;DHT22;10944;42.590;12.630;2022-08-04T02:30:55;23.40;95.70
21568;DHT22;10944;42.590;12.630;2022-08-04T02:36:34;23.30;95.90
21568;DHT22;10944;42.590;12.630;2022-08-04T02:39:02;23.40;95.90
21568;DHT22;10944;42.590;12.630;2022-08-04T02:41:30;23.30;95.90
21568;DHT22;10944;42.590;12.630;2022-08-04T02:44:01;23.30;95.90
21568;DHT22;10944;42.590;12.630;2022-08-04T02:46:28;23.20;96.00
21568;DHT22;10944;42.590;12.630;2022-08-04T02:48:55;23.10;96.10
21568;DHT22;10944;42.590;12.630;2022-08-04T02:51:29;23.20;96.20
21568;DHT22;10944;42.590;12.630;2022-08-04T02:53:57;23.20;96.10
21568;DHT22;10944;42.590;12.630;2022-08-04T02:56:27;23.20;96.10
21568;DHT22;10944;42.590;12.630;2022-08-04T02:59:00;23.40;95.90
21568;DHT22;10944;42.590;12.630;2022-08-04T03:01:26;23.30;95.90
21568;DHT22;10944;42.590;12.630;2022-08-04T03:09:30;22.90;96.40
21568;DHT22;10944;42.590;12.630;2022-08-04T03:27:02;22.70;97.30
21568;DHT22;10944;42.590;12.630;2022-08-04T03:51:47;22.50;97.40
21568;DHT22;10944;42.590;12.630;2022-08-04T04:00:54;22.50;97.60
21568;DHT22;10944;42.590;12.630;2022-08-04T04:03:34;22.50;97.60
21568;DHT22;10944;42.590;12.630;2022-08-04T04:14:50;22.50;97.60
21568;DHT22;10944;42.590;12.630;2022-08-04T04:18:09;22.70;97.50
21568;DHT22;10944;42.590;12.630;2022-08-04T04:36:26;22.60;97.80
21568;DHT22;10944;42.590;12.630;2022-08-04T04:41:35;22.50;97.90
21568;DHT22;10944;42.590;12.630;2022-08-04T04:49:53;22.60;98.00
21568;DHT22;10944;42.590;12.630;2022-08-04T04:52:48;22.60;98.00
21568;DHT22;10944;42.590;12.630;2022-08-04T04:55:21;22.60;98.10
21568;DHT22;10944;42.590;12.630;2022-08-04T04:57:51;22.70;98.30
21568;DHT22;10944;42.590;12.630;2022-08-04T05:00:18;22.80;98.30
21568;DHT22;10944;42.590;12.630;2022-08-04T05:13:33;23.90;96.80
21568;DHT22;10944;42.590;12.630;2022-08-04T05:18:45;25.00;96.00
21568;DHT22;10944;42.590;12.630;2022-08-04T05:21:38;25.40;95.30
21568;DHT22;10944;42.590;12.630;2022-08-04T05:24:09;25.50;95.30
21568;DHT22;10944;42.590;12.630;2022-08-04T05:26:44;25.10;95.80
21568;DHT22;10944;42.590;12.630;2022-08-04T05:29:17;24.90;95.60
21568;DHT22;10944;42.590;12.630;2022-08-04T05:31:50;25.00;95.50
21568;DHT22;10944;42.590;12.630;2022-08-04T05:34:26;25.00;95.10
21568;DHT22;10944;42.590;12.630;2022-08-04T05:37:04;25.30;95.30
21568;DHT22;10944;42.590;12.630;2022-08-04T05:39:36;25.30;94.80
21568;DHT22;10944;42.590;12.630;2022-08-04T05:42:03;25.40;94.80
21568;DHT22;10944;42.590;12.630;2022-08-04T05:44:32;25.30;94.70
21568;DHT22;10944;42.590;12.630;2022-08-04T05:46:58;25.50;94.80
21568;DHT22;10944;42.590;12.630;2022-08-04T05:49:27;25.70;94.00
21568;DHT22;10944;42.590;12.630;2022-08-04T05:51:56;26.00;93.90
21568;DHT22;10944;42.590;12.630;2022-08-04T05:54:23;26.20;93.70
21568;DHT22;10944;42.590;12.630;2022-08-04T05:56:49;26.20;93.50
21568;DHT22;10944;42.590;12.630;2022-08-04T05:59:17;26.30;93.20
21568;DHT22;10944;42.590;12.630;2022-08-04T06:01:45;26.40;93.20
21568;DHT22;10944;42.590;12.630;2022-08-04T06:04:12;26.50;93.10
21568;DHT22;10944;42.590;12.630;2022-08-04T06:06:39;26.50;92.90
21568;DHT22;10944;42.590;12.630;2022-08-04T06:09:06;26.60;92.90
21568;DHT22;10944;42.590;12.630;2022-08-04T06:11:34;26.60;92.40
21568;DHT22;10944;42.590;12.630;2022-08-04T06:14:02;26.60;92.20
21568;DHT22;10944;42.590;12.630;2022-08-04T06:16:38;26.60;92.10
21568;DHT22;10944;42.590;12.630;2022-08-04T06:19:10;26.60;92.00
21568;DHT22;10944;42.590;12.630;2022-08-04T06:21:42;26.70;92.00
21568;DHT22;10944;42.590;12.630;2022-08-04T06:24:11;26.80;91.90
21568;DHT22;10944;42.590;12.630;2022-08-04T06:26:39;26.90;92.20
21568;DHT22;10944;42.590;12.630;2022-08-04T06:29:05;27.00;92.00
21568;DHT22;10944;42.590;12.630;2022-08-04T06:31:41;27.20;91.70
21568;DHT22;10944;42.590;12.630;2022-08-04T06:34:12;27.20;91.60
21568;DHT22;10944;42.590;12.630;2022-08-04T06:36:40;27.30;91.60
21568;DHT22;10944;42.590;12.630;2022-08-04T06:39:09;27.30;91.30
21568;DHT22;10944;42.590;12.630;2022-08-04T06:41:36;27.50;91.40
21568;DHT22;10944;42.590;12.630;2022-08-04T06:44:05;27.60;91.30
21568;DHT22;10944;42.590;12.630;2022-08-04T06:46:34;27.70;91.10
21568;DHT22;10944;42.590;12.630;2022-08-04T06:49:01;27.90;91.00
21568;DHT22;10944;42.590;12.630;2022-08-04T06:51:29;28.00;90.60
21568;DHT22;10944;42.590;12.630;2022-08-04T06:53:56;28.20;90.60
21568;DHT22;10944;42.590;12.630;2022-08-04T06:56:22;28.30;90.20
21568;DHT22;10944;42.590;12.630;2022-08-04T06:58:50;28.40;90.30
21568;DHT22;10944;42.590;12.630;2022-08-04T07:01:19;28.50;89.50
21568;DHT22;10944;42.590;12.630;2022-08-04T07:03:46;28.70;89.40
21568;DHT22;10944;42.590;12.630;2022-08-04T07:06:13;28.80;89.30
21568;DHT22;10944;42.590;12.630;2022-08-04T07:08:39;28.90;88.50
21568;DHT22;10944;42.590;12.630;2022-08-04T07:11:05;28.80;88.30
21568;DHT22;10944;42.590;12.630;2022-08-04T07:13:32;28.90;88.00
21568;DHT22;10944;42.590;12.630;2022-08-04T07:15:59;29.00;87.20
21568;DHT22;10944;42.590;12.630;2022-08-04T07:18:25;29.10;88.40
21568;DHT22;10944;42.590;12.630;2022-08-04T07:20:51;29.10;88.70
21568;DHT22;10944;42.590;12.630;2022-08-04T07:23:23;29.20;88.60
21568;DHT22;10944;42.590;12.630;2022-08-04T07:25:54;29.20;88.50
21568;DHT22;10944;42.590;12.630;2022-08-04T07:28:21;29.20;88.00
21568;DHT22;10944;42.590;12.630;2022-08-04T07:30:48;29.20;87.60
21568;DHT22;10944;42.590;12.630;2022-08-04T07:33:16;29.20;87.70
21568;DHT22;10944;42.590;12.630;2022-08-04T07:35:43;29.30;88.30
21568;DHT22;10944;42.590;12.630;2022-08-04T07:38:09;29.40;88.00
21568;DHT22;10944;42.590;12.630;2022-08-04T07:40:38;29.40;88.00
21568;DHT22;10944;42.590;12.630;2022-08-04T07:43:04;29.60;87.90
21568;DHT22;10944;42.590;12.630;2022-08-04T07:45:31;29.60;87.00
21568;DHT22;10944;42.590;12.630;2022-08-04T07:47:56;29.60;86.90
21568;DHT22;10944;42.590;12.630;2022-08-04T07:50:23;29.60;87.60
21568;DHT22;10944;42.590;12.630;2022-08-04T07:52:50;29.60;88.40
21568;DHT22;10944;42.590;12.630;2022-08-04T07:55:17;29.60;87.50
21568;DHT22;10944;42.590;12.630;2022-08-04T07:57:43;29.70;87.30
21568;DHT22;10944;42.590;12.630;2022-08-04T08:00:11;29.70;87.00
21568;DHT22;10944;42.590;12.630;2022-08-04T08:02:44;29.60;87.30
21568;DHT22;10944;42.590;12.630;2022-08-04T08:05:14;29.50;87.60
21568;DHT22;10944;42.590;12.630;2022-08-04T08:07:47;29.70;88.10
21568;DHT22;10944;42.590;12.630;2022-08-04T08:10:14;29.80;87.90
21568;DHT22;10944;42.590;12.630;2022-08-04T08:12:40;29.70;88.00
21568;DHT22;10944;42.590;12.630;2022-08-04T08:15:08;29.80;88.30
21568;DHT22;10944;42.590;12.630;2022-08-04T08:17:34;29.70;87.50
21568;DHT22;10944;42.590;12.630;2022-08-04T08:20:00;29.60;88.50
21568;DHT22;10944;42.590;12.630;2022-08-04T08:22:27;29.80;88.10
21568;DHT22;10944;42.590;12.630;2022-08-04T08:24:53;29.80;87.20
21568;DHT22;10944;42.590;12.630;2022-08-04T08:27:19;29.80;88.00
21568;DHT22;10944;42.590;12.630;2022-08-04T08:29:46;30.00;87.80
21568;DHT22;10944;42.590;12.630;2022-08-04T08:32:12;30.30;88.00
21568;DHT22;10944;42.590;12.630;2022-08-04T08:34:39;30.40;87.50
21568;DHT22;10944;42.590;12.630;2022-08-04T08:37:36;30.60;86.90
21568;DHT22;10944;42.590;12.630;2022-08-04T08:40:32;30.50;86.90
21568;DHT22;10944;42.590;12.630;2022-08-04T09:11:25;31.50;82.10
21568;DHT22;10944;42.590;12.630;2022-08-04T09:13:57;31.50;83.00
21568;DHT22;10944;42.590;12.630;2022-08-04T09:16:53;31.70;82.20
21568;DHT22;10944;42.590;12.630;2022-08-04T09:19:27;31.70;80.20
21568;DHT22;10944;42.590;12.630;2022-08-04T09:22:08;31.80;81.20
21568;DHT22;10944;42.590;12.630;2022-08-04T09:25:10;31.70;82.30
21568;DHT22;10944;42.590;12.630;2022-08-04T09:27:52;31.70;82.40
21568;DHT22;10944;42.590;12.630;2022-08-04T09:33:23;32.10;81.40
21568;DHT22;10944;42.590;12.630;2022-08-04T09:36:02;32.30;81.00
21568;DHT22;10944;42.590;12.630;2022-08-04T09:38:46;32.00;80.30
21568;DHT22;10944;42.590;12.630;2022-08-04T09:45:06;32.00;77.50
21568;DHT22;10944;42.590;12.630;2022-08-04T09:49:57;32.40;77.20
21568;DHT22;10944;42.590;12.630;2022-08-04T09:58:00;32.60;74.50
21568;DHT22;10944;42.590;12.630;2022-08-04T10:00:35;32.80;74.60
21568;DHT22;10944;42.590;12.630;2022-08-04T10:03:04;33.00;73.80
21568;DHT22;10944;42.590;12.630;2022-08-04T10:05:42;33.20;70.60
21568;DHT22;10944;42.590;12.630;2022-08-04T10:11:36;33.40;69.80
21568;DHT22;10944;42.590;12.630;2022-08-04T10:14:12;33.40;70.50
21568;DHT22;10944;42.590;12.630;2022-08-04T10:16:52;33.30;69.30
21568;DHT22;10944;42.590;12.630;2022-08-04T10:19:31;33.40;65.40
21568;DHT22;10944;42.590;12.630;2022-08-04T10:27:32;33.40;55.60
21568;DHT22;10944;42.590;12.630;2022-08-04T10:30:06;33.50;57.10
21568;DHT22;10944;42.590;12.630;2022-08-04T10:33:08;33.70;55.90
21568;DHT22;10944;42.590;12.630;2022-08-04T10:36:00;33.70;57.70
21568;DHT22;10944;42.590;12.630;2022-08-04T10:38:32;33.50;58.40
21568;DHT22;10944;42.590;12.630;2022-08-04T10:46:46;33.70;54.50
21568;DHT22;10944;42.590;12.630;2022-08-04T10:49:09;33.90;56.50
21568;DHT22;10944;42.590;12.630;2022-08-04T10:51:46;34.00;55.30
21568;DHT22;10944;42.590;12.630;2022-08-04T10:54:36;33.70;55.10
21568;DHT22;10944;42.590;12.630;2022-08-04T11:00:09;33.90;61.40
21568;DHT22;10944;42.590;12.630;2022-08-04T11:08:26;34.40;61.30
21568;DHT22;10944;42.590;12.630;2022-08-04T11:13:37;34.50;59.60
21568;DHT22;10944;42.590;12.630;2022-08-04T11:16:12;34.40;60.00
21568;DHT22;10944;42.590;12.630;2022-08-04T11:21:42;34.70;61.30
21568;DHT22;10944;42.590;12.630;2022-08-04T11:27:08;34.50;61.40
21568;DHT22;10944;42.590;12.630;2022-08-04T11:30:02;34.60;62.30
21568;DHT22;10944;42.590;12.630;2022-08-04T11:35:04;34.60;61.70
21568;DHT22;10944;42.590;12.630;2022-08-04T11:37:45;34.50;60.80
21568;DHT22;10944;42.590;12.630;2022-08-04T11:40:28;34.60;61.80
21568;DHT22;10944;42.590;12.630;2022-08-04T11:43:11;34.60;61.30
21568;DHT22;10944;42.590;12.630;2022-08-04T11:45:46;34.60;62.10
21568;DHT22;10944;42.590;12.630;2022-08-04T11:48:26;34.80;61.60
21568;DHT22;10944;42.590;12.630;2022-08-04T11:50:53;34.60;61.50
21568;DHT22;10944;42.590;12.630;2022-08-04T11:53:23;34.70;62.10
21568;DHT22;10944;42.590;12.630;2022-08-04T11:55:52;34.80;61.30
21568;DHT22;10944;42.590;12.630;2022-08-04T11:58:22;34.90;60.80
21568;DHT22;10944;42.590;12.630;2022-08-04T12:01:14;34.90;60.10
21568;DHT22;10944;42.590;12.630;2022-08-04T12:06:47;34.80;59.60
21568;DHT22;10944;42.590;12.630;2022-08-04T12:09:21;34.40;60.30
21568;DHT22;10944;42.590;12.630;2022-08-04T12:14:45;34.90;59.40
21568;DHT22;10944;42.590;12.630;2022-08-04T12:17:23;35.40;59.30
21568;DHT22;10944;42.590;12.630;2022-08-04T12:19:52;35.40;58.70
21568;DHT22;10944;42.590;12.630;2022-08-04T12:22:25;35.30;59.00
21568;DHT22;10944;42.590;12.630;2022-08-04T12:25:09;35.40;59.30
21568;DHT22;10944;42.590;12.630;2022-08-04T12:27:39;35.40;59.30
21568;DHT22;10944;42.590;12.630;2022-08-04T12:30:07;35.20;59.20
21568;DHT22;10944;42.590;12.630;2022-08-04T12:38:11;35.20;58.70
21568;DHT22;10944;42.590;12.630;2022-08-04T12:40:48;35.30;58.80
21568;DHT22;10944;42.590;12.630;2022-08-04T12:43:18;35.40;57.90
21568;DHT22;10944;42.590;12.630;2022-08-04T12:45:57;35.40;57.00
21568;DHT22;10944;42.590;12.630;2022-08-04T12:48:26;35.10;56.70
21568;DHT22;10944;42.590;12.630;2022-08-04T12:50:54;35.10;57.00
21568;DHT22;10944;42.590;12.630;2022-08-04T12:53:26;35.20;56.30
21568;DHT22;10944;42.590;12.630;2022-08-04T12:55:55;35.10;55.40
21568;DHT22;10944;42.590;12.630;2022-08-04T12:58:23;35.10;56.20
21568;DHT22;10944;42.590;12.630;2022-08-04T13:00:55;35.30;56.10
21568;DHT22;10944;42.590;12.630;2022-08-04T13:03:25;35.60;55.40
21568;DHT22;10944;42.590;12.630;2022-08-04T13:05:55;35.70;55.10
21568;DHT22;10944;42.590;12.630;2022-08-04T13:08:22;35.50;54.70
21568;DHT22;10944;42.590;12.630;2022-08-04T13:10:51;35.50;54.80
21568;DHT22;10944;42.590;12.630;2022-08-04T13:13:23;35.50;53.50
21568;DHT22;10944;42.590;12.630;2022-08-04T13:16:01;35.40;54.20
21568;DHT22;10944;42.590;12.630;2022-08-04T13:18:28;35.50;54.70
21568;DHT22;10944;42.590;12.630;2022-08-04T13:20:55;35.30;54.80
21568;DHT22;10944;42.590;12.630;2022-08-04T13:23:24;35.40;54.80
21568;DHT22;10944;42.590;12.630;2022-08-04T13:25:52;35.50;54.60
21568;DHT22;10944;42.590;12.630;2022-08-04T13:28:21;35.70;54.10
21568;DHT22;10944;42.590;12.630;2022-08-04T13:30:52;35.70;54.00
21568;DHT22;10944;42.590;12.630;2022-08-04T13:33:19;35.70;52.70
21568;DHT22;10944;42.590;12.630;2022-08-04T13:35:46;35.50;53.00
21568;DHT22;10944;42.590;12.630;2022-08-04T13:38:14;35.70;53.10
21568;DHT22;10944;42.590;12.630;2022-08-04T13:40:43;35.70;52.30
21568;DHT22;10944;42.590;12.630;2022-08-04T13:43:20;35.80;52.70
21568;DHT22;10944;42.590;12.630;2022-08-04T13:45:49;35.90;51.90
21568;DHT22;10944;42.590;12.630;2022-08-04T13:48:15;35.80;52.40
21568;DHT22;10944;42.590;12.630;2022-08-04T13:50:44;35.70;52.50
21568;DHT22;10944;42.590;12.630;2022-08-04T13:53:11;35.50;52.20
21568;DHT22;10944;42.590;12.630;2022-08-04T13:55:38;35.40;52.90
21568;DHT22;10944;42.590;12.630;2022-08-04T13:58:19;35.70;52.70
21568;DHT22;10944;42.590;12.630;2022-08-04T14:00:59;35.90;52.20
21568;DHT22;10944;42.590;12.630;2022-08-04T14:06:23;36.10;52.60
21568;DHT22;10944;42.590;12.630;2022-08-04T14:08:55;36.40;52.30
21568;DHT22;10944;42.590;12.630;2022-08-04T14:11:33;36.20;52.30
21568;DHT22;10944;42.590;12.630;2022-08-04T14:14:03;36.20;52.60
21568;DHT22;10944;42.590;12.630;2022-08-04T14:16:37;36.10;51.20
21568;DHT22;10944;42.590;12.630;2022-08-04T14:19:02;36.10;51.40
21568;DHT22;10944;42.590;12.630;2022-08-04T14:21:34;35.90;51.80
21568;DHT22;10944;42.590;12.630;2022-08-04T14:24:00;35.80;51.20
21568;DHT22;10944;42.590;12.630;2022-08-04T14:26:31;35.70;51.40
21568;DHT22;10944;42.590;12.630;2022-08-04T14:29:14;35.70;51.70
21568;DHT22;10944;42.590;12.630;2022-08-04T14:31:40;35.60;52.10
21568;DHT22;10944;42.590;12.630;2022-08-04T14:34:06;35.80;51.80
21568;DHT22;10944;42.590;12.630;2022-08-04T14:36:40;36.00;51.40
21568;DHT22;10944;42.590;12.630;2022-08-04T14:39:06;36.00;51.10
21568;DHT22;10944;42.590;12.630;2022-08-04T14:41:45;35.80;50.10
21568;DHT22;10944;42.590;12.630;2022-08-04T14:44:11;35.70;51.40
21568;DHT22;10944;42.590;12.630;2022-08-04T14:46:51;35.80;50.60
21568;DHT22;10944;42.590;12.630;2022-08-04T14:49:17;35.90;50.80
21568;DHT22;10944;42.590;12.630;2022-08-04T14:51:52;35.90;50.20
21568;DHT22;10944;42.590;12.630;2022-08-04T14:54:30;35.80;50.90
21568;DHT22;10944;42.590;12.630;2022-08-04T14:57:02;35.90;51.40
21568;DHT22;10944;42.590;12.630;2022-08-04T14:59:42;36.00;50.50
21568;DHT22;10944;42.590;12.630;2022-08-04T15:02:08;35.90;50.50
21568;DHT22;10944;42.590;12.630;2022-08-04T15:04:36;35.80;50.30
21568;DHT22;10944;42.590;12.630;2022-08-04T15:07:03;35.80;50.60
21568;DHT22;10944;42.590;12.630;2022-08-04T15:09:30;35.90;50.20
21568;DHT22;10944;42.590;12.630;2022-08-04T15:11:56;35.80;50.00
21568;DHT22;10944;42.590;12.630;2022-08-04T15:14:22;35.90;50.00
21568;DHT22;10944;42.590;12.630;2022-08-04T15:16:49;36.00;50.30
21568;DHT22;10944;42.590;12.630;2022-08-04T15:19:15;35.90;49.50
21568;DHT22;10944;42.590;12.630;2022-08-04T15:21:42;35.70;49.70
21568;DHT22;10944;42.590;12.630;2022-08-04T15:24:09;35.60;48.70
21568;DHT22;10944;42.590;12.630;2022-08-04T15:26:42;35.60;48.90
21568;DHT22;10944;42.590;12.630;2022-08-04T15:29:16;35.70;49.00
21568;DHT22;10944;42.590;12.630;2022-08-04T15:31:44;35.80;49.30
21568;DHT22;10944;42.590;12.630;2022-08-04T15:34:11;35.70;48.30
21568;DHT22;10944;42.590;12.630;2022-08-04T15:36:55;35.60;47.80
21568;DHT22;10944;42.590;12.630;2022-08-04T15:39:43;35.40;48.70
21568;DHT22;10944;42.590;12.630;2022-08-04T15:47:25;35.50;49.10
21568;DHT22;10944;42.590;12.630;2022-08-04T15:50:07;35.50;49.50
21568;DHT22;10944;42.590;12.630;2022-08-04T15:53:09;35.50;49.80
21568;DHT22;10944;42.590;12.630;2022-08-04T15:58:09;35.50;49.50
21568;DHT22;10944;42.590;12.630;2022-08-04T16:16:44;35.20;50.20
21568;DHT22;10944;42.590;12.630;2022-08-04T16:21:52;35.20;50.30
21568;DHT22;10944;42.590;12.630;2022-08-04T16:26:49;35.10;49.40
21568;DHT22;10944;42.590;12.630;2022-08-04T16:32:13;35.20;51.20
21568;DHT22;10944;42.590;12.630;2022-08-04T16:34:46;35.10;51.30
21568;DHT22;10944;42.590;12.630;2022-08-04T16:37:15;35.10;51.40
21568;DHT22;10944;42.590;12.630;2022-08-04T16:39:43;35.10;51.30
21568;DHT22;10944;42.590;12.630;2022-08-04T16:42:31;35.10;57.50
21568;DHT22;10944;42.590;12.630;2022-08-04T16:50:20;34.60;65.80
21568;DHT22;10944;42.590;12.630;2022-08-04T16:52:48;34.30;66.70
21568;DHT22;10944;42.590;12.630;2022-08-04T16:55:14;34.20;67.60
21568;DHT22;10944;42.590;12.630;2022-08-04T16:57:45;34.20;68.10
21568;DHT22;10944;42.590;12.630;2022-08-04T17:00:11;34.00;68.40
21568;DHT22;10944;42.590;12.630;2022-08-04T17:02:37;33.80;68.80
21568;DHT22;10944;42.590;12.630;2022-08-04T17:05:02;33.60;69.30
21568;DHT22;10944;42.590;12.630;2022-08-04T17:07:28;33.60;69.50
21568;DHT22;10944;42.590;12.630;2022-08-04T17:10:12;33.40;69.80
21568;DHT22;10944;42.590;12.630;2022-08-04T17:12:38;33.30;71.30
21568;DHT22;10944;42.590;12.630;2022-08-04T17:15:21;33.20;71.00
21568;DHT22;10944;42.590;12.630;2022-08-04T17:17:47;33.10;72.10
21568;DHT22;10944;42.590;12.630;2022-08-04T17:20:13;33.00;72.90
21568;DHT22;10944;42.590;12.630;2022-08-04T17:22:40;32.80;73.60
21568;DHT22;10944;42.590;12.630;2022-08-04T17:25:06;32.80;74.00
21568;DHT22;10944;42.590;12.630;2022-08-04T17:27:32;32.70;74.40
21568;DHT22;10944;42.590;12.630;2022-08-04T17:29:58;32.60;74.50
21568;DHT22;10944;42.590;12.630;2022-08-04T17:32:23;32.60;75.00
21568;DHT22;10944;42.590;12.630;2022-08-04T17:34:55;32.50;75.50
21568;DHT22;10944;42.590;12.630;2022-08-04T17:37:22;32.40;75.80
21568;DHT22;10944;42.590;12.630;2022-08-04T17:39:52;32.40;76.10
21568;DHT22;10944;42.590;12.630;2022-08-04T17:42:33;32.30;76.50
21568;DHT22;10944;42.590;12.630;2022-08-04T17:45:10;32.20;76.80
21568;DHT22;10944;42.590;12.630;2022-08-04T17:47:52;32.10;76.70
21568;DHT22;10944;42.590;12.630;2022-08-04T17:50:25;32.00;76.90
21568;DHT22;10944;42.590;12.630;2022-08-04T17:53:01;31.90;77.50
21568;DHT22;10944;42.590;12.630;2022-08-04T17:55:41;31.80;77.10
21568;DHT22;10944;42.590;12.630;2022-08-04T18:00:40;31.70;77.10
21568;DHT22;10944;42.590;12.630;2022-08-04T18:03:06;31.60;77.50
21568;DHT22;10944;42.590;12.630;2022-08-04T18:05:31;31.50;77.70
21568;DHT22;10944;42.590;12.630;2022-08-04T18:08:05;31.40;78.00
21568;DHT22;10944;42.590;12.630;2022-08-04T18:10:42;31.40;78.60
21568;DHT22;10944;42.590;12.630;2022-08-04T18:13:08;31.20;78.40
21568;DHT22;10944;42.590;12.630;2022-08-04T18:15:34;31.20;78.10
21568;DHT22;10944;42.590;12.630;2022-08-04T18:18:17;31.20;78.20
21568;DHT22;10944;42.590;12.630;2022-08-04T18:20:43;31.10;77.90
21568;DHT22;10944;42.590;12.630;2022-08-04T18:23:09;31.00;77.70
21568;DHT22;10944;42.590;12.630;2022-08-04T18:25:36;31.00;78.20
21568;DHT22;10944;42.590;12.630;2022-08-04T18:28:05;30.80;78.30
21568;DHT22;10944;42.590;12.630;2022-08-04T18:30:34;30.70;78.70
21568;DHT22;10944;42.590;12.630;2022-08-04T18:33:00;30.70;78.70
21568;DHT22;10944;42.590;12.630;2022-08-04T18:35:27;30.60;79.00
21568;DHT22;10944;42.590;12.630;2022-08-04T18:37:53;30.50;79.40
21568;DHT22;10944;42.590;12.630;2022-08-04T18:40:20;30.40;79.40
21568;DHT22;10944;42.590;12.630;2022-08-04T18:42:46;30.30;79.80
21568;DHT22;10944;42.590;12.630;2022-08-04T18:45:12;30.20;80.10
21568;DHT22;10944;42.590;12.630;2022-08-04T18:47:38;30.10;80.10
21568;DHT22;10944;42.590;12.630;2022-08-04T18:50:05;30.00;80.70
21568;DHT22;10944;42.590;12.630;2022-08-04T18:52:31;29.90;80.80
21568;DHT22;10944;42.590;12.630;2022-08-04T18:54:57;29.90;81.80
21568;DHT22;10944;42.590;12.630;2022-08-04T18:57:24;29.90;81.50
21568;DHT22;10944;42.590;12.630;2022-08-04T18:59:52;29.80;81.30
21568;DHT22;10944;42.590;12.630;2022-08-04T19:02:19;29.70;81.40
21568;DHT22;10944;42.590;12.630;2022-08-04T19:04:46;29.60;81.50
21568;DHT22;10944;42.590;12.630;2022-08-04T19:07:14;29.50;81.70
21568;DHT22;10944;42.590;12.630;2022-08-04T19:09:40;29.40;82.00
21568;DHT22;10944;42.590;12.630;2022-08-04T19:12:06;29.40;82.50
21568;DHT22;10944;42.590;12.630;2022-08-04T19:14:32;29.30;82.80
21568;DHT22;10944;42.590;12.630;2022-08-04T19:16:58;29.30;82.90
21568;DHT22;10944;42.590;12.630;2022-08-04T19:19:24;29.20;83.30
21568;DHT22;10944;42.590;12.630;2022-08-04T19:21:49;29.20;83.80
21568;DHT22;10944;42.590;12.630;2022-08-04T19:24:15;29.20;83.50
21568;DHT22;10944;42.590;12.630;2022-08-04T19:26:41;29.10;83.70
21568;DHT22;10944;42.590;12.630;2022-08-04T19:29:07;29.00;84.40
21568;DHT22;10944;42.590;12.630;2022-08-04T19:31:33;28.90;84.70
21568;DHT22;10944;42.590;12.630;2022-08-04T19:33:59;28.90;84.70
21568;DHT22;10944;42.590;12.630;2022-08-04T19:36:27;28.90;85.00
21568;DHT22;10944;42.590;12.630;2022-08-04T19:38:58;28.90;85.10
21568;DHT22;10944;42.590;12.630;2022-08-04T19:41:25;28.90;85.30
21568;DHT22;10944;42.590;12.630;2022-08-04T19:43:51;28.90;84.70
21568;DHT22;10944;42.590;12.630;2022-08-04T19:46:17;28.90;84.80
21568;DHT22;10944;42.590;12.630;2022-08-04T19:48:42;28.90;85.20
21568;DHT22;10944;42.590;12.630;2022-08-04T19:51:11;28.80;85.50
21568;DHT22;10944;42.590;12.630;2022-08-04T19:53:36;28.80;85.60
21568;DHT22;10944;42.590;12.630;2022-08-04T19:56:02;28.80;85.60
21568;DHT22;10944;42.590;12.630;2022-08-04T19:58:28;28.80;85.90
21568;DHT22;10944;42.590;12.630;2022-08-04T20:00:54;28.80;86.10
21568;DHT22;10944;42.590;12.630;2022-08-04T20:03:20;28.70;86.20
21568;DHT22;10944;42.590;12.630;2022-08-04T20:05:46;28.80;86.40
21568;DHT22;10944;42.590;12.630;2022-08-04T20:08:12;28.80;86.70
21568;DHT22;10944;42.590;12.630;2022-08-04T20:10:38;28.70;87.00
21568;DHT22;10944;42.590;12.630;2022-08-04T20:13:04;28.50;87.70
21568;DHT22;10944;42.590;12.630;2022-08-04T20:15:30;28.50;88.50